sensor_id;sensor_type;location;lat;lon;timestamp;P1;durP1;ratioP1;P2;durP2;ratioP2
61673;SDS011;47573;43.832;5.974;2023-06-14T00:02:05;391.77;;;280.17;;
61673;SDS011;47573;43.832;5.974;2023-06-14T00:08:45;399.05;;;280.88;;
61673;SDS011;47573;43.832;5.974;2023-06-14T00:15:27;386.70;;;275.00;;
61673;SDS011;47573;43.832;5.974;2023-06-14T00:22:08;408.10;;;286.55;;
61673;SDS011;47573;43.832;5.974;2023-06-14T00:28:49;425.17;;;298.00;;
61673;SDS011;47573;43.832;5.974;2023-06-14T00:35:30;459.23;;;323.95;;
61673;SDS011;47573;43.832;5.974;2023-06-14T00:42:11;468.07;;;337.67;;
61673;SDS011;47573;43.832;5.974;2023-06-14T00:49:03;462.83;;;329.93;;
61673;SDS011;47573;43.832;5.974;2023-06-14T00:55:45;455.13;;;323.98;;
61673;SDS011;47573;43.832;5.974;2023-06-14T01:02:26;456.40;;;321.47;;
61673;SDS011;47573;43.832;5.974;2023-06-14T01:09:09;447.67;;;318.90;;
61673;SDS011;47573;43.832;5.974;2023-06-14T01:15:59;441.10;;;313.83;;
61673;SDS011;47573;43.832;5.974;2023-06-14T01:22:50;433.67;;;310.75;;
61673;SDS011;47573;43.832;5.974;2023-06-14T01:29:31;418.15;;;300.70;;
61673;SDS011;47573;43.832;5.974;2023-06-14T01:36:12;418.42;;;298.75;;
61673;SDS011;47573;43.832;5.974;2023-06-14T01:42:55;423.43;;;301.80;;
61673;SDS011;47573;43.832;5.974;2023-06-14T01:56:18;410.08;;;294.40;;
61673;SDS011;47573;43.832;5.974;2023-06-14T02:03:00;409.90;;;292.33;;
61673;SDS011;47573;43.832;5.974;2023-06-14T02:09:41;404.25;;;289.15;;
61673;SDS011;47573;43.832;5.974;2023-06-14T02:16:22;408.77;;;291.05;;
61673;SDS011;47573;43.832;5.974;2023-06-14T02:23:03;403.23;;;286.13;;
61673;SDS011;47573;43.832;5.974;2023-06-14T02:29:44;394.27;;;283.53;;
61673;SDS011;47573;43.832;5.974;2023-06-14T02:36:24;387.43;;;277.10;;
61673;SDS011;47573;43.832;5.974;2023-06-14T02:43:06;380.67;;;270.90;;
61673;SDS011;47573;43.832;5.974;2023-06-14T02:49:47;385.17;;;273.90;;
61673;SDS011;47573;43.832;5.974;2023-06-14T02:56:27;376.00;;;269.10;;
61673;SDS011;47573;43.832;5.974;2023-06-14T03:03:09;369.77;;;266.13;;
61673;SDS011;47573;43.832;5.974;2023-06-14T03:09:49;359.90;;;256.80;;
61673;SDS011;47573;43.832;5.974;2023-06-14T03:16:30;352.17;;;252.80;;
61673;SDS011;47573;43.832;5.974;2023-06-14T03:23:12;350.33;;;249.60;;
61673;SDS011;47573;43.832;5.974;2023-06-14T03:29:52;343.23;;;243.73;;
61673;SDS011;47573;43.832;5.974;2023-06-14T03:36:33;339.27;;;239.13;;
61673;SDS011;47573;43.832;5.974;2023-06-14T03:43:15;331.80;;;234.37;;
61673;SDS011;47573;43.832;5.974;2023-06-14T03:49:55;324.07;;;231.13;;
61673;SDS011;47573;43.832;5.974;2023-06-14T03:56:35;322.53;;;227.30;;
61673;SDS011;47573;43.832;5.974;2023-06-14T04:03:18;315.83;;;224.23;;
61673;SDS011;47573;43.832;5.974;2023-06-14T04:09:58;311.60;;;217.63;;
61673;SDS011;47573;43.832;5.974;2023-06-14T04:16:38;307.80;;;216.30;;
61673;SDS011;47573;43.832;5.974;2023-06-14T04:23:20;301.63;;;211.33;;
61673;SDS011;47573;43.832;5.974;2023-06-14T04:30:01;286.67;;;204.27;;
61673;SDS011;47573;43.832;5.974;2023-06-14T04:36:42;294.00;;;204.55;;
61673;SDS011;47573;43.832;5.974;2023-06-14T04:43:24;282.60;;;197.00;;
61673;SDS011;47573;43.832;5.974;2023-06-14T04:50:05;289.97;;;201.07;;
61673;SDS011;47573;43.832;5.974;2023-06-14T04:56:46;180.48;;;121.60;;
61673;SDS011;47573;43.832;5.974;2023-06-14T05:03:28;80.53;;;54.58;;
61673;SDS011;47573;43.832;5.974;2023-06-14T05:10:08;52.87;;;31.73;;
61673;SDS011;47573;43.832;5.974;2023-06-14T05:16:49;39.38;;;27.08;;
61673;SDS011;47573;43.832;5.974;2023-06-14T05:23:31;365.92;;;117.88;;
61673;SDS011;47573;43.832;5.974;2023-06-14T05:30:12;247.13;;;87.83;;
61673;SDS011;47573;43.832;5.974;2023-06-14T05:36:53;240.02;;;80.80;;
61673;SDS011;47573;43.832;5.974;2023-06-14T05:43:35;241.50;;;70.70;;
61673;SDS011;47573;43.832;5.974;2023-06-14T05:50:15;115.30;;;38.55;;
61673;SDS011;47573;43.832;5.974;2023-06-14T05:56:56;33.88;;;18.67;;
61673;SDS011;47573;43.832;5.974;2023-06-14T06:03:37;106.97;;;35.73;;
61673;SDS011;47573;43.832;5.974;2023-06-14T06:10:18;168.50;;;55.55;;
61673;SDS011;47573;43.832;5.974;2023-06-14T06:16:58;468.13;;;170.20;;
61673;SDS011;47573;43.832;5.974;2023-06-14T06:23:40;45.90;;;19.55;;
61673;SDS011;47573;43.832;5.974;2023-06-14T06:30:21;273.55;;;96.07;;
61673;SDS011;47573;43.832;5.974;2023-06-14T06:37:02;240.95;;;84.40;;
61673;SDS011;47573;43.832;5.974;2023-06-14T06:43:44;60.03;;;27.65;;
61673;SDS011;47573;43.832;5.974;2023-06-14T06:50:24;188.48;;;69.65;;
61673;SDS011;47573;43.832;5.974;2023-06-14T06:57:05;132.40;;;47.63;;
61673;SDS011;47573;43.832;5.974;2023-06-14T07:03:47;102.72;;;37.80;;
61673;SDS011;47573;43.832;5.974;2023-06-14T07:10:28;34.35;;;18.50;;
61673;SDS011;47573;43.832;5.974;2023-06-14T07:17:08;15.70;;;11.40;;
61673;SDS011;47573;43.832;5.974;2023-06-14T07:23:50;18.07;;;12.10;;
61673;SDS011;47573;43.832;5.974;2023-06-14T07:30:30;560.15;;;252.32;;
61673;SDS011;47573;43.832;5.974;2023-06-14T07:37:11;20.37;;;11.47;;
61673;SDS011;47573;43.832;5.974;2023-06-14T07:43:53;15.35;;;10.38;;
61673;SDS011;47573;43.832;5.974;2023-06-14T07:50:33;13.88;;;10.35;;
61673;SDS011;47573;43.832;5.974;2023-06-14T07:57:14;42.63;;;20.07;;
61673;SDS011;47573;43.832;5.974;2023-06-14T08:03:56;667.97;;;306.85;;
61673;SDS011;47573;43.832;5.974;2023-06-14T08:10:36;121.15;;;37.00;;
61673;SDS011;47573;43.832;5.974;2023-06-14T08:17:17;28.33;;;12.60;;
61673;SDS011;47573;43.832;5.974;2023-06-14T08:23:59;8.57;;;6.30;;
61673;SDS011;47573;43.832;5.974;2023-06-14T08:30:39;13.33;;;7.70;;
61673;SDS011;47573;43.832;5.974;2023-06-14T08:37:21;8.57;;;6.43;;
61673;SDS011;47573;43.832;5.974;2023-06-14T08:44:03;8.90;;;6.68;;
61673;SDS011;47573;43.832;5.974;2023-06-14T08:50:44;10.83;;;7.10;;
61673;SDS011;47573;43.832;5.974;2023-06-14T08:57:25;9.93;;;7.43;;
61673;SDS011;47573;43.832;5.974;2023-06-14T09:04:07;9.88;;;7.70;;
61673;SDS011;47573;43.832;5.974;2023-06-14T09:10:48;9.10;;;7.30;;
61673;SDS011;47573;43.832;5.974;2023-06-14T09:17:29;10.63;;;8.07;;
61673;SDS011;47573;43.832;5.974;2023-06-14T09:24:14;9.80;;;7.47;;
61673;SDS011;47573;43.832;5.974;2023-06-14T09:30:55;10.05;;;7.60;;
61673;SDS011;47573;43.832;5.974;2023-06-14T09:37:35;9.63;;;7.23;;
61673;SDS011;47573;43.832;5.974;2023-06-14T09:44:17;10.43;;;7.23;;
61673;SDS011;47573;43.832;5.974;2023-06-14T09:50:58;10.07;;;7.55;;
61673;SDS011;47573;43.832;5.974;2023-06-14T09:57:41;11.55;;;7.60;;
61673;SDS011;47573;43.832;5.974;2023-06-14T10:04:23;10.07;;;7.25;;
61673;SDS011;47573;43.832;5.974;2023-06-14T10:11:05;9.55;;;7.07;;
61673;SDS011;47573;43.832;5.974;2023-06-14T10:17:47;10.05;;;7.43;;
61673;SDS011;47573;43.832;5.974;2023-06-14T10:24:33;9.73;;;7.43;;
61673;SDS011;47573;43.832;5.974;2023-06-14T10:31:18;9.25;;;7.30;;
61673;SDS011;47573;43.832;5.974;2023-06-14T10:38:06;9.50;;;7.10;;
61673;SDS011;47573;43.832;5.974;2023-06-14T10:44:50;9.85;;;7.50;;
61673;SDS011;47573;43.832;5.974;2023-06-14T10:51:37;9.13;;;7.03;;
61673;SDS011;47573;43.832;5.974;2023-06-14T10:58:19;9.73;;;6.70;;
61673;SDS011;47573;43.832;5.974;2023-06-14T11:05:02;13.57;;;8.27;;
61673;SDS011;47573;43.832;5.974;2023-06-14T11:11:44;10.18;;;7.45;;
61673;SDS011;47573;43.832;5.974;2023-06-14T11:18:26;11.27;;;7.83;;
61673;SDS011;47573;43.832;5.974;2023-06-14T11:25:11;9.23;;;7.22;;
61673;SDS011;47573;43.832;5.974;2023-06-14T11:31:52;10.60;;;6.95;;
61673;SDS011;47573;43.832;5.974;2023-06-14T11:38:34;9.52;;;7.28;;
61673;SDS011;47573;43.832;5.974;2023-06-14T11:45:18;10.27;;;7.10;;
61673;SDS011;47573;43.832;5.974;2023-06-14T11:51:58;100.85;;;51.05;;
61673;SDS011;47573;43.832;5.974;2023-06-14T11:58:39;209.10;;;104.17;;
61673;SDS011;47573;43.832;5.974;2023-06-14T12:05:21;206.27;;;103.60;;
61673;SDS011;47573;43.832;5.974;2023-06-14T12:12:03;206.43;;;99.80;;
61673;SDS011;47573;43.832;5.974;2023-06-14T12:18:43;217.30;;;102.32;;
61673;SDS011;47573;43.832;5.974;2023-06-14T12:25:28;192.87;;;94.60;;
61673;SDS011;47573;43.832;5.974;2023-06-14T12:32:10;188.95;;;94.70;;
61673;SDS011;47573;43.832;5.974;2023-06-14T12:38:51;288.25;;;155.50;;
61673;SDS011;47573;43.832;5.974;2023-06-14T12:45:33;181.35;;;89.80;;
61673;SDS011;47573;43.832;5.974;2023-06-14T12:52:13;173.37;;;88.47;;
61673;SDS011;47573;43.832;5.974;2023-06-14T12:58:54;164.50;;;85.55;;
61673;SDS011;47573;43.832;5.974;2023-06-14T13:05:36;161.93;;;83.37;;
61673;SDS011;47573;43.832;5.974;2023-06-14T13:12:17;161.90;;;82.53;;
61673;SDS011;47573;43.832;5.974;2023-06-14T13:18:57;156.25;;;80.70;;
61673;SDS011;47573;43.832;5.974;2023-06-14T13:25:39;139.17;;;70.00;;
61673;SDS011;47573;43.832;5.974;2023-06-14T13:32:20;136.55;;;68.00;;
61673;SDS011;47573;43.832;5.974;2023-06-14T13:39:01;120.28;;;61.92;;
61673;SDS011;47573;43.832;5.974;2023-06-14T13:45:43;121.00;;;58.53;;
61673;SDS011;47573;43.832;5.974;2023-06-14T13:52:23;138.03;;;64.63;;
61673;SDS011;47573;43.832;5.974;2023-06-14T13:59:04;111.82;;;57.05;;
61673;SDS011;47573;43.832;5.974;2023-06-14T14:05:46;114.33;;;57.87;;
61673;SDS011;47573;43.832;5.974;2023-06-14T14:12:27;102.37;;;54.40;;
61673;SDS011;47573;43.832;5.974;2023-06-14T14:19:07;109.40;;;56.90;;
61673;SDS011;47573;43.832;5.974;2023-06-14T14:25:49;115.03;;;61.03;;
61673;SDS011;47573;43.832;5.974;2023-06-14T14:32:29;134.73;;;74.67;;
61673;SDS011;47573;43.832;5.974;2023-06-14T14:39:10;179.03;;;98.07;;
61673;SDS011;47573;43.832;5.974;2023-06-14T14:45:52;159.90;;;87.63;;
61673;SDS011;47573;43.832;5.974;2023-06-14T14:52:32;151.73;;;86.90;;
61673;SDS011;47573;43.832;5.974;2023-06-14T14:59:13;118.00;;;69.23;;
61673;SDS011;47573;43.832;5.974;2023-06-14T15:05:54;124.53;;;72.03;;
61673;SDS011;47573;43.832;5.974;2023-06-14T15:12:35;126.43;;;73.53;;
61673;SDS011;47573;43.832;5.974;2023-06-14T15:19:17;131.67;;;73.90;;
61673;SDS011;47573;43.832;5.974;2023-06-14T15:25:59;124.43;;;70.60;;
61673;SDS011;47573;43.832;5.974;2023-06-14T15:32:40;124.77;;;72.63;;
61673;SDS011;47573;43.832;5.974;2023-06-14T15:39:20;127.33;;;71.10;;
61673;SDS011;47573;43.832;5.974;2023-06-14T15:46:02;163.83;;;102.97;;
61673;SDS011;47573;43.832;5.974;2023-06-14T15:52:42;200.33;;;123.63;;
61673;SDS011;47573;43.832;5.974;2023-06-14T15:59:23;235.00;;;149.43;;
61673;SDS011;47573;43.832;5.974;2023-06-14T16:06:05;269.02;;;169.68;;
61673;SDS011;47573;43.832;5.974;2023-06-14T16:12:45;292.63;;;187.73;;
61673;SDS011;47573;43.832;5.974;2023-06-14T16:19:26;319.98;;;208.57;;
61673;SDS011;47573;43.832;5.974;2023-06-14T16:26:08;320.50;;;208.90;;
61673;SDS011;47573;43.832;5.974;2023-06-14T16:32:51;322.45;;;207.75;;
61673;SDS011;47573;43.832;5.974;2023-06-14T16:39:31;342.73;;;225.45;;
61673;SDS011;47573;43.832;5.974;2023-06-14T16:46:14;356.93;;;238.63;;
61673;SDS011;47573;43.832;5.974;2023-06-14T16:59:34;392.45;;;262.25;;
61673;SDS011;47573;43.832;5.974;2023-06-14T17:06:16;400.83;;;271.50;;
61673;SDS011;47573;43.832;5.974;2023-06-14T17:12:57;406.47;;;254.47;;
61673;SDS011;47573;43.832;5.974;2023-06-14T17:19:37;87.13;;;50.80;;
61673;SDS011;47573;43.832;5.974;2023-06-14T17:26:19;68.30;;;38.37;;
61673;SDS011;47573;43.832;5.974;2023-06-14T17:32:59;68.53;;;37.67;;
61673;SDS011;47573;43.832;5.974;2023-06-14T17:39:40;52.35;;;28.45;;
61673;SDS011;47573;43.832;5.974;2023-06-14T17:46:22;39.40;;;21.77;;
61673;SDS011;47573;43.832;5.974;2023-06-14T17:53:02;53.33;;;29.17;;
61673;SDS011;47573;43.832;5.974;2023-06-14T17:59:43;55.30;;;31.42;;
61673;SDS011;47573;43.832;5.974;2023-06-14T18:06:25;73.17;;;43.43;;
61673;SDS011;47573;43.832;5.974;2023-06-14T18:13:06;62.93;;;38.43;;
61673;SDS011;47573;43.832;5.974;2023-06-14T18:19:46;57.88;;;33.30;;
61673;SDS011;47573;43.832;5.974;2023-06-14T18:26:28;55.80;;;30.73;;
61673;SDS011;47573;43.832;5.974;2023-06-14T18:33:09;68.63;;;34.93;;
61673;SDS011;47573;43.832;5.974;2023-06-14T18:39:49;52.77;;;30.47;;
61673;SDS011;47573;43.832;5.974;2023-06-14T18:46:31;42.97;;;23.07;;
61673;SDS011;47573;43.832;5.974;2023-06-14T18:53:12;54.17;;;32.30;;
61673;SDS011;47573;43.832;5.974;2023-06-14T18:59:52;51.70;;;26.42;;
61673;SDS011;47573;43.832;5.974;2023-06-14T19:06:34;51.80;;;25.13;;
61673;SDS011;47573;43.832;5.974;2023-06-14T19:13:15;45.28;;;21.70;;
61673;SDS011;47573;43.832;5.974;2023-06-14T19:19:56;50.42;;;27.10;;
61673;SDS011;47573;43.832;5.974;2023-06-14T19:26:38;39.37;;;22.87;;
61673;SDS011;47573;43.832;5.974;2023-06-14T19:33:18;40.17;;;21.27;;
61673;SDS011;47573;43.832;5.974;2023-06-14T19:39:59;34.80;;;18.10;;
61673;SDS011;47573;43.832;5.974;2023-06-14T19:46:41;31.13;;;15.90;;
61673;SDS011;47573;43.832;5.974;2023-06-14T19:53:21;60.15;;;29.67;;
61673;SDS011;47573;43.832;5.974;2023-06-14T20:00:02;61.00;;;31.05;;
61673;SDS011;47573;43.832;5.974;2023-06-14T20:06:44;63.03;;;34.00;;
61673;SDS011;47573;43.832;5.974;2023-06-14T20:13:25;84.55;;;42.45;;
61673;SDS011;47573;43.832;5.974;2023-06-14T20:20:05;76.28;;;38.80;;
61673;SDS011;47573;43.832;5.974;2023-06-14T20:26:48;93.15;;;47.95;;
61673;SDS011;47573;43.832;5.974;2023-06-14T20:33:28;102.60;;;50.57;;
61673;SDS011;47573;43.832;5.974;2023-06-14T20:40:18;97.33;;;49.53;;
61673;SDS011;47573;43.832;5.974;2023-06-14T20:47:00;104.78;;;49.35;;
61673;SDS011;47573;43.832;5.974;2023-06-14T20:53:41;93.70;;;48.13;;
61673;SDS011;47573;43.832;5.974;2023-06-14T21:00:21;107.87;;;53.07;;
61673;SDS011;47573;43.832;5.974;2023-06-14T21:07:03;132.25;;;65.43;;
61673;SDS011;47573;43.832;5.974;2023-06-14T21:13:44;145.20;;;76.32;;
61673;SDS011;47573;43.832;5.974;2023-06-14T21:20:25;168.20;;;98.20;;
61673;SDS011;47573;43.832;5.974;2023-06-14T21:27:07;182.07;;;103.77;;
61673;SDS011;47573;43.832;5.974;2023-06-14T21:33:47;209.30;;;124.57;;
61673;SDS011;47573;43.832;5.974;2023-06-14T21:40:28;264.77;;;164.60;;
61673;SDS011;47573;43.832;5.974;2023-06-14T21:47:10;250.65;;;150.02;;
61673;SDS011;47573;43.832;5.974;2023-06-14T21:53:51;307.38;;;200.68;;
61673;SDS011;47573;43.832;5.974;2023-06-14T22:00:32;322.98;;;217.15;;
61673;SDS011;47573;43.832;5.974;2023-06-14T22:07:14;319.93;;;219.90;;
61673;SDS011;47573;43.832;5.974;2023-06-14T22:13:54;359.17;;;240.43;;
61673;SDS011;47573;43.832;5.974;2023-06-14T22:20:35;386.08;;;268.60;;
61673;SDS011;47573;43.832;5.974;2023-06-14T22:27:17;374.83;;;265.87;;
61673;SDS011;47573;43.832;5.974;2023-06-14T22:33:57;413.70;;;296.97;;
61673;SDS011;47573;43.832;5.974;2023-06-14T22:40:37;414.27;;;290.63;;
61673;SDS011;47573;43.832;5.974;2023-06-14T22:47:19;388.27;;;275.20;;
61673;SDS011;47573;43.832;5.974;2023-06-14T22:54:01;398.58;;;282.63;;
61673;SDS011;47573;43.832;5.974;2023-06-14T23:00:42;434.35;;;311.35;;
61673;SDS011;47573;43.832;5.974;2023-06-14T23:07:23;399.30;;;284.20;;
61673;SDS011;47573;43.832;5.974;2023-06-14T23:14:04;367.40;;;265.00;;
61673;SDS011;47573;43.832;5.974;2023-06-14T23:20:45;397.70;;;284.83;;
61673;SDS011;47573;43.832;5.974;2023-06-14T23:27:26;444.10;;;316.20;;
61673;SDS011;47573;43.832;5.974;2023-06-14T23:34:07;444.88;;;317.35;;
61673;SDS011;47573;43.832;5.974;2023-06-14T23:40:48;451.92;;;321.90;;
61673;SDS011;47573;43.832;5.974;2023-06-14T23:47:30;441.67;;;320.27;;
61673;SDS011;47573;43.832;5.974;2023-06-14T23:54:10;340.00;;;239.73;;
